Terminal Aerodrome Forecast
Issued by NWS

Home | Current Version | Previous Version | Text Only | Print | Product List | Glossary On
Versions: 1 2 3 4 5 6 7 8 9 10 11 12 13 14
005
FTUS46 KSGX 142320
TAFONT
TAF
KONT 142320Z 1500/1606 04020G30KT P6SM SCT250
     FM150300 04015G25KT P6SM FEW250 WS010/06025KT
     FM150500 VRB06KT P6SM SKC
     FM152000 25006KT P6SM SKC=

USA.gov is the U.S. government's official web portal to all federal, state and local government web resources and services.